createdAt,value
2023-05-22T00:00:09.515Z,11.30
2023-05-22T00:01:06.933Z,11.90
2023-05-22T00:01:45.712Z,11.20
2023-05-22T00:02:19.131Z,11.40
2023-05-22T00:02:53.329Z,13.90
2023-05-22T00:03:26.947Z,13.70
2023-05-22T00:04:00.231Z,10.80
2023-05-22T00:04:33.462Z,9.70
2023-05-22T00:05:07.520Z,12.50
2023-05-22T00:05:41.355Z,9.80
2023-05-22T00:06:15.274Z,10.60
2023-05-22T00:06:49.336Z,10.50
2023-05-22T00:07:24.436Z,10.40
2023-05-22T00:07:57.862Z,10.20
2023-05-22T00:08:31.248Z,11.40
2023-05-22T00:09:04.897Z,10.70
2023-05-22T00:09:38.123Z,12.60
2023-05-22T00:10:14.087Z,12.60
2023-05-22T00:10:53.798Z,12.30
2023-05-22T00:11:28.760Z,11.10
2023-05-22T00:12:02.113Z,11.30
2023-05-22T00:12:35.522Z,11.00
2023-05-22T00:13:08.914Z,10.40
2023-05-22T00:13:43.815Z,10.30
2023-05-22T00:14:18.888Z,11.30
2023-05-22T00:14:53.308Z,11.00
2023-05-22T00:15:26.498Z,10.40
2023-05-22T00:15:59.730Z,13.30
2023-05-22T00:16:33.008Z,10.50
2023-05-22T00:17:06.611Z,11.40
2023-05-22T00:17:40.320Z,11.90
2023-05-22T00:18:16.675Z,13.30
2023-05-22T00:18:49.918Z,11.60
2023-05-22T00:19:23.390Z,12.30
2023-05-22T00:19:57.202Z,12.10
2023-05-22T00:20:30.497Z,10.70
2023-05-22T00:21:06.260Z,11.40
2023-05-22T00:21:40.150Z,13.50
2023-05-22T00:22:13.433Z,9.70
2023-05-22T00:22:48.908Z,11.20
2023-05-22T00:23:22.250Z,11.00
2023-05-22T00:23:55.949Z,11.50
2023-05-22T00:24:29.199Z,9.60
2023-05-22T00:25:06.520Z,9.70
2023-05-22T00:25:40.641Z,11.30
2023-05-22T00:26:16.597Z,10.00
2023-05-22T00:26:49.909Z,12.50
2023-05-22T00:27:23.262Z,9.90
2023-05-22T00:27:56.628Z,14.00
2023-05-22T00:28:29.978Z,10.80
2023-05-22T00:29:03.938Z,11.30
2023-05-22T00:29:37.404Z,9.70
2023-05-22T00:30:11.390Z,12.30
2023-05-22T00:30:44.969Z,10.70
2023-05-22T00:31:18.733Z,10.40
2023-05-22T00:31:52.287Z,9.90
2023-05-22T00:32:29.146Z,11.90
2023-05-22T00:33:05.220Z,10.60
2023-05-22T00:33:38.849Z,10.20
2023-05-22T00:34:12.294Z,13.00
2023-05-22T00:34:45.705Z,11.70
2023-05-22T00:35:19.074Z,13.40
2023-05-22T00:35:52.383Z,10.00
2023-05-22T00:36:25.716Z,10.50
2023-05-22T00:36:59.102Z,13.20
2023-05-22T00:37:32.548Z,11.90
2023-05-22T00:38:06.532Z,9.80
2023-05-22T00:38:39.909Z,10.10
2023-05-22T00:39:13.829Z,12.50
2023-05-22T00:39:47.363Z,11.30
2023-05-22T00:40:21.950Z,11.10
2023-05-22T00:40:55.465Z,12.70
2023-05-22T00:41:28.915Z,11.50
2023-05-22T00:42:02.692Z,9.60
2023-05-22T00:42:36.364Z,10.40
2023-05-22T00:43:09.778Z,9.20
2023-05-22T00:43:45.385Z,10.80
2023-05-22T00:44:19.062Z,9.40
2023-05-22T00:44:52.994Z,10.50
2023-05-22T00:45:26.369Z,11.10
2023-05-22T00:46:00.150Z,10.50
2023-05-22T00:46:35.266Z,10.80
2023-05-22T00:47:11.567Z,9.50
2023-05-22T00:47:46.600Z,9.60
2023-05-22T00:48:23.625Z,9.80
2023-05-22T00:48:57.100Z,9.50
2023-05-22T00:49:30.852Z,10.00
2023-05-22T00:50:06.372Z,11.70
2023-05-22T00:50:40.215Z,10.60
2023-05-22T00:51:13.880Z,10.20
2023-05-22T00:51:47.272Z,9.90
2023-05-22T00:52:21.173Z,10.00
2023-05-22T00:52:54.586Z,9.20
2023-05-22T00:53:30.702Z,10.40
2023-05-22T00:54:06.416Z,10.90
2023-05-22T00:54:39.828Z,10.80
2023-05-22T00:55:16.082Z,11.60
2023-05-22T00:55:49.891Z,9.40
2023-05-22T00:56:23.893Z,9.90
2023-05-22T00:57:04.170Z,11.60
2023-05-22T00:57:42.160Z,10.50
2023-05-22T00:58:17.997Z,10.30
2023-05-22T00:58:51.444Z,9.70
2023-05-22T00:59:24.832Z,10.60
2023-05-22T00:59:59.062Z,11.00
2023-05-22T01:00:34.477Z,13.50
2023-05-22T01:01:09.924Z,11.80
2023-05-22T01:01:45.364Z,10.70
2023-05-22T01:02:18.910Z,11.60
2023-05-22T01:02:52.444Z,10.50
2023-05-22T01:03:30.231Z,10.70
2023-05-22T01:04:08.283Z,11.00
2023-05-22T01:04:48.347Z,10.20
2023-05-22T01:05:22.229Z,9.60
2023-05-22T01:05:56.186Z,9.90
2023-05-22T01:06:32.497Z,9.90
2023-05-22T01:07:06.425Z,10.90
2023-05-22T01:07:39.789Z,10.90
2023-05-22T01:08:13.241Z,9.80
2023-05-22T01:08:46.600Z,10.00
2023-05-22T01:09:20.103Z,11.60
2023-05-22T01:09:53.429Z,10.10
2023-05-22T01:10:28.322Z,10.30
2023-05-22T01:11:24.459Z,11.20
2023-05-22T01:11:57.703Z,14.10
2023-05-22T01:12:49.399Z,10.90
2023-05-22T01:13:50.784Z,10.10
2023-05-22T01:15:01.143Z,10.20
2023-05-22T01:16:05.275Z,10.80
2023-05-22T01:16:50.933Z,10.80
2023-05-22T01:17:53.448Z,12.90
2023-05-22T01:18:39.259Z,10.00
2023-05-22T01:19:47.822Z,10.70
2023-05-22T01:20:21.581Z,13.30
2023-05-22T01:21:04.643Z,10.90
2023-05-22T01:21:48.186Z,12.30
2023-05-22T01:22:25.286Z,10.80
2023-05-22T01:23:25.813Z,14.00
2023-05-22T01:24:25.872Z,11.00
2023-05-22T01:25:12.078Z,12.60
2023-05-22T01:26:06.194Z,10.90
2023-05-22T01:26:51.590Z,13.20
2023-05-22T01:27:43.388Z,10.60
2023-05-22T01:28:53.735Z,12.80
2023-05-22T01:29:45.715Z,13.90
2023-05-22T01:30:47.650Z,10.60
2023-05-22T01:31:26.086Z,11.60
2023-05-22T01:32:02.422Z,13.20
2023-05-22T01:32:38.524Z,12.20
2023-05-22T01:33:16.593Z,10.80
2023-05-22T01:33:53.497Z,10.50
2023-05-22T01:34:28.611Z,12.60
2023-05-22T01:35:03.858Z,12.60
2023-05-22T01:35:40.032Z,10.50
2023-05-22T01:36:15.924Z,10.30
2023-05-22T01:36:51.439Z,12.10
2023-05-22T01:37:25.742Z,10.10
2023-05-22T01:38:01.477Z,11.70
2023-05-22T01:38:35.539Z,10.30
2023-05-22T01:39:09.545Z,10.30
2023-05-22T01:39:44.167Z,10.70
2023-05-22T01:40:18.652Z,12.60
2023-05-22T01:40:52.903Z,11.50
2023-05-22T01:41:29.402Z,11.30
2023-05-22T01:42:02.920Z,10.70
2023-05-22T01:42:36.798Z,12.00
2023-05-22T01:43:10.120Z,10.30
2023-05-22T01:43:44.447Z,11.10
2023-05-22T01:44:18.019Z,10.30
2023-05-22T01:44:51.390Z,13.30
2023-05-22T01:45:24.974Z,10.40
2023-05-22T01:45:58.409Z,11.10
2023-05-22T01:46:31.917Z,10.30
2023-05-22T01:47:06.038Z,10.90
2023-05-22T01:47:39.491Z,11.90
2023-05-22T01:48:12.943Z,10.50
2023-05-22T01:48:46.336Z,12.10
2023-05-22T01:51:28.416Z,10.50
2023-05-22T01:52:37.365Z,13.00
2023-05-22T01:53:31.887Z,12.30
2023-05-22T01:54:12.828Z,14.50
2023-05-22T01:54:52.981Z,11.40
2023-05-22T01:55:52.185Z,11.40
2023-05-22T01:57:05.547Z,12.40
2023-05-22T01:58:08.491Z,10.30
2023-05-22T01:58:50.234Z,11.10
2023-05-22T01:59:35.034Z,11.80
2023-05-22T02:00:11.317Z,10.80
2023-05-22T02:00:54.035Z,11.00
2023-05-22T02:01:30.201Z,12.00
2023-05-22T02:02:07.239Z,9.40
2023-05-22T02:02:45.298Z,11.50
2023-05-22T02:03:23.072Z,9.80
2023-05-22T02:03:58.494Z,9.70
2023-05-22T02:04:33.269Z,12.10
2023-05-22T02:05:10.122Z,11.00
2023-05-22T02:05:45.835Z,10.30
2023-05-22T02:06:20.154Z,11.30
2023-05-22T02:06:54.489Z,11.40
2023-05-22T02:07:29.549Z,12.90
2023-05-22T02:08:04.115Z,11.10
2023-05-22T02:08:39.896Z,13.00
2023-05-22T02:09:17.400Z,12.70
2023-05-22T02:09:52.221Z,11.10
2023-05-22T02:10:28.474Z,11.60
2023-05-22T02:11:03.412Z,10.40
2023-05-22T02:11:40.182Z,12.10
2023-05-22T02:12:13.987Z,10.90
2023-05-22T02:12:47.584Z,11.90
2023-05-22T02:13:21.499Z,12.40
2023-05-22T02:13:56.805Z,11.10
2023-05-22T02:14:30.460Z,12.00
2023-05-22T02:15:05.633Z,10.80
2023-05-22T02:15:39.004Z,10.80
2023-05-22T02:16:12.621Z,12.00
2023-05-22T02:16:47.890Z,11.20
2023-05-22T02:17:22.552Z,10.80
2023-05-22T02:17:57.116Z,11.00
2023-05-22T02:18:31.683Z,10.00
2023-05-22T02:19:08.350Z,11.70
2023-05-22T02:19:42.116Z,10.60
2023-05-22T02:20:16.450Z,11.00
2023-05-22T02:20:50.101Z,11.30
2023-05-22T02:21:23.419Z,10.60
2023-05-22T02:21:56.763Z,10.30
2023-05-22T02:22:30.070Z,9.90
2023-05-22T02:23:03.645Z,10.40
2023-05-22T02:23:38.061Z,11.10
2023-05-22T02:24:11.407Z,11.40
2023-05-22T02:24:47.894Z,10.40
2023-05-22T02:25:21.627Z,13.20
2023-05-22T02:25:55.902Z,11.10
2023-05-22T02:26:29.317Z,15.40
2023-05-22T02:27:02.680Z,11.80
2023-05-22T02:27:36.347Z,12.00
2023-05-22T02:28:09.659Z,11.90
2023-05-22T02:28:44.173Z,11.40
2023-05-22T02:29:17.579Z,10.80
2023-05-22T02:29:51.189Z,10.50
2023-05-22T02:30:24.871Z,11.00
2023-05-22T02:30:59.080Z,10.60
2023-05-22T02:31:32.415Z,10.70
2023-05-22T02:32:06.150Z,10.40
2023-05-22T02:32:40.877Z,12.10
2023-05-22T02:33:18.143Z,11.70
2023-05-22T02:33:51.504Z,10.90
2023-05-22T02:34:27.007Z,12.20
2023-05-22T02:35:00.449Z,10.40
2023-05-22T02:35:33.922Z,11.00
2023-05-22T02:36:10.973Z,10.90
2023-05-22T02:36:44.261Z,10.80
2023-05-22T02:37:17.664Z,12.80
2023-05-22T02:37:51.138Z,10.40
2023-05-22T02:38:24.801Z,11.50
2023-05-22T02:38:59.678Z,10.90
2023-05-22T02:39:33.107Z,11.40
2023-05-22T02:40:07.024Z,11.60
2023-05-22T02:40:40.595Z,11.40
2023-05-22T02:41:14.326Z,13.00
2023-05-22T02:41:47.741Z,12.80
2023-05-22T02:42:21.348Z,12.40
2023-05-22T02:42:54.753Z,12.20
2023-05-22T02:43:28.159Z,15.20
2023-05-22T02:44:01.456Z,14.80
2023-05-22T02:44:34.978Z,11.90
2023-05-22T02:45:09.058Z,13.70
2023-05-22T02:45:42.596Z,12.50
2023-05-22T02:46:15.956Z,12.70
2023-05-22T02:46:49.303Z,12.70
2023-05-22T02:47:22.643Z,12.20
2023-05-22T02:47:55.987Z,11.90
2023-05-22T02:48:31.983Z,12.00
2023-05-22T02:49:05.347Z,13.10
2023-05-22T02:49:38.749Z,12.10
2023-05-22T02:50:12.133Z,11.70
2023-05-22T02:50:45.599Z,13.10
2023-05-22T02:51:18.937Z,12.40
2023-05-22T02:51:52.349Z,11.80
2023-05-22T02:52:25.768Z,11.20
2023-05-22T02:52:59.218Z,12.20
2023-05-22T02:53:35.576Z,12.10
2023-05-22T02:54:08.806Z,11.50
2023-05-22T02:54:42.243Z,11.00
2023-05-22T02:55:15.661Z,11.60
2023-05-22T02:55:48.985Z,11.50
2023-05-22T02:56:22.292Z,11.50
2023-05-22T02:56:56.052Z,10.90
2023-05-22T02:57:29.350Z,11.50
2023-05-22T02:58:03.316Z,12.00
2023-05-22T02:58:37.204Z,10.90
2023-05-22T02:59:10.559Z,10.30
2023-05-22T02:59:44.592Z,10.60
2023-05-22T03:00:18.693Z,10.60
2023-05-22T03:00:53.203Z,12.80
2023-05-22T03:01:26.740Z,10.30
2023-05-22T03:02:01.538Z,10.50
2023-05-22T03:02:36.853Z,11.30
2023-05-22T03:03:10.536Z,11.50
2023-05-22T03:03:43.972Z,11.10
2023-05-22T03:04:17.454Z,11.80
2023-05-22T03:04:50.788Z,12.20
2023-05-22T03:05:23.952Z,13.00
2023-05-22T03:05:58.689Z,13.00
2023-05-22T03:06:32.459Z,13.50
2023-05-22T03:07:07.614Z,11.60
2023-05-22T03:07:41.334Z,12.80
2023-05-22T03:08:16.211Z,12.10
2023-05-22T03:08:49.468Z,12.70
2023-05-22T03:09:22.759Z,12.00
2023-05-22T03:09:57.166Z,14.70
2023-05-22T03:10:30.488Z,12.80
2023-05-22T03:11:04.375Z,12.30
2023-05-22T03:11:37.755Z,13.70
2023-05-22T03:12:11.272Z,13.50
2023-05-22T03:12:44.674Z,13.80
2023-05-22T03:13:18.017Z,13.00
2023-05-22T03:13:51.329Z,14.60
2023-05-22T03:14:24.712Z,12.80
2023-05-22T03:14:58.059Z,14.00
2023-05-22T03:15:31.382Z,15.40
2023-05-22T03:16:08.455Z,12.80
2023-05-22T03:16:42.310Z,13.60
2023-05-22T03:17:15.712Z,14.30
2023-05-22T03:17:48.985Z,13.10
2023-05-22T03:18:22.313Z,12.80
2023-05-22T03:19:15.984Z,13.00
2023-05-22T03:19:49.439Z,12.30
2023-05-22T03:20:22.833Z,14.40
2023-05-22T03:20:56.075Z,14.80
2023-05-22T03:21:29.346Z,12.60
2023-05-22T03:22:02.795Z,13.20
2023-05-22T03:22:36.376Z,14.10
2023-05-22T03:23:12.166Z,12.40
2023-05-22T03:23:47.261Z,12.90
2023-05-22T03:24:21.303Z,11.80
2023-05-22T03:24:54.706Z,12.80
2023-05-22T03:25:28.096Z,13.40
2023-05-22T03:26:01.708Z,14.60
2023-05-22T03:26:39.772Z,12.60
2023-05-22T03:27:17.309Z,13.10
2023-05-22T03:27:52.521Z,12.60
2023-05-22T03:28:25.930Z,12.00
2023-05-22T03:28:59.495Z,13.90
2023-05-22T03:29:33.055Z,14.30
2023-05-22T03:30:07.283Z,12.00
2023-05-22T03:30:41.335Z,12.50
2023-05-22T03:31:24.580Z,12.30
2023-05-22T03:32:05.890Z,12.10
2023-05-22T03:32:39.271Z,13.20
2023-05-22T03:33:12.721Z,12.10
2023-05-22T03:33:46.187Z,13.80
2023-05-22T03:34:19.667Z,12.90
2023-05-22T03:34:53.631Z,14.80
2023-05-22T03:35:26.942Z,12.30
2023-05-22T03:36:00.263Z,12.20
2023-05-22T03:36:36.657Z,11.80
2023-05-22T03:37:10.062Z,11.90
2023-05-22T03:37:43.414Z,12.00
2023-05-22T03:38:16.700Z,11.30
2023-05-22T03:38:50.159Z,11.30
2023-05-22T03:39:23.534Z,11.30
2023-05-22T03:40:02.182Z,12.00
2023-05-22T03:40:37.175Z,11.30
2023-05-22T03:41:10.706Z,10.80
2023-05-22T03:41:44.110Z,11.30
2023-05-22T03:42:17.706Z,12.20
2023-05-22T03:42:51.579Z,10.60
2023-05-22T03:43:25.109Z,11.80
2023-05-22T03:43:58.850Z,11.40
2023-05-22T03:44:32.382Z,10.40
2023-05-22T03:45:07.721Z,11.90
2023-05-22T03:45:41.154Z,12.40
2023-05-22T03:46:14.628Z,10.70
2023-05-22T03:46:47.930Z,10.50
2023-05-22T03:47:21.713Z,12.10
2023-05-22T03:47:55.113Z,10.50
2023-05-22T03:48:31.517Z,11.50
2023-05-22T03:49:06.732Z,10.60
2023-05-22T03:49:39.983Z,12.20
2023-05-22T03:50:13.298Z,11.50
2023-05-22T03:50:46.581Z,13.60
2023-05-22T03:51:20.450Z,11.00
2023-05-22T03:51:53.915Z,13.00
2023-05-22T03:52:27.984Z,11.60
2023-05-22T03:53:01.415Z,11.90
2023-05-22T03:53:35.030Z,11.30
2023-05-22T03:54:08.380Z,11.50
2023-05-22T03:54:41.841Z,12.00
2023-05-22T03:55:15.271Z,12.60
2023-05-22T03:55:48.680Z,12.40
2023-05-22T03:56:21.982Z,13.40
2023-05-22T03:56:55.950Z,12.00
2023-05-22T03:57:29.291Z,11.40
2023-05-22T03:58:04.221Z,12.40
2023-05-22T03:58:37.663Z,13.70
2023-05-22T03:59:12.215Z,13.10
2023-05-22T03:59:46.727Z,11.90
2023-05-22T04:00:20.186Z,13.30
2023-05-22T04:00:58.818Z,12.40
2023-05-22T04:01:32.242Z,13.70
2023-05-22T04:02:05.656Z,12.40
2023-05-22T04:02:39.307Z,12.10
2023-05-22T04:03:19.731Z,12.40
2023-05-22T04:03:53.429Z,13.90
2023-05-22T04:04:30.690Z,13.00
2023-05-22T04:05:04.428Z,12.20
2023-05-22T04:05:37.725Z,12.70
2023-05-22T04:06:13.900Z,13.40
2023-05-22T04:06:47.273Z,11.50
2023-05-22T04:07:20.704Z,13.70
2023-05-22T04:07:54.002Z,13.30
2023-05-22T04:08:27.359Z,12.50
2023-05-22T04:09:01.213Z,12.70
2023-05-22T04:09:36.273Z,11.80
2023-05-22T04:10:09.964Z,12.70
2023-05-22T04:10:46.790Z,12.70
2023-05-22T04:11:21.396Z,14.90
2023-05-22T04:11:56.219Z,15.70
2023-05-22T04:12:29.564Z,13.10
2023-05-22T04:13:02.812Z,14.10
2023-05-22T04:13:36.210Z,14.00
2023-05-22T04:14:10.225Z,13.10
2023-05-22T04:14:43.480Z,12.90
2023-05-22T04:15:16.821Z,14.30
2023-05-22T04:15:50.566Z,12.70
2023-05-22T04:16:23.963Z,11.90
2023-05-22T04:16:57.377Z,13.20
2023-05-22T04:17:33.773Z,13.50
2023-05-22T04:18:08.134Z,12.00
2023-05-22T04:18:41.483Z,12.20
2023-05-22T04:19:14.997Z,12.10
2023-05-22T04:19:48.327Z,12.50
2023-05-22T04:20:22.526Z,13.20
2023-05-22T04:20:57.770Z,12.90
2023-05-22T04:21:34.505Z,13.90
2023-05-22T04:22:07.950Z,13.00
2023-05-22T04:22:42.053Z,11.70
2023-05-22T04:23:15.827Z,11.80
2023-05-22T04:23:49.796Z,11.20
2023-05-22T04:24:23.444Z,12.50
2023-05-22T04:24:57.457Z,12.50
2023-05-22T04:25:31.832Z,11.40
2023-05-22T04:26:05.114Z,12.50
2023-05-22T04:26:40.473Z,11.10
2023-05-22T04:27:15.511Z,11.70
2023-05-22T04:27:48.967Z,11.60
2023-05-22T04:28:24.887Z,11.80
2023-05-22T04:28:58.198Z,11.40
2023-05-22T04:29:31.610Z,12.70
2023-05-22T04:30:07.444Z,13.00
2023-05-22T04:30:41.330Z,14.00
2023-05-22T04:31:15.028Z,11.80
2023-05-22T04:31:50.895Z,14.00
2023-05-22T04:32:25.007Z,11.90
2023-05-22T04:32:58.521Z,12.70
2023-05-22T04:33:34.896Z,15.50
2023-05-22T04:34:12.148Z,12.10
2023-05-22T04:34:48.073Z,12.60
2023-05-22T04:35:22.716Z,12.20
2023-05-22T04:35:56.160Z,14.70
2023-05-22T04:36:31.409Z,12.50
2023-05-22T04:37:06.422Z,15.20
2023-05-22T04:37:45.809Z,12.30
2023-05-22T04:38:19.236Z,12.70
2023-05-22T04:38:53.446Z,13.40
2023-05-22T04:39:26.650Z,13.20
2023-05-22T04:40:06.057Z,11.60
2023-05-22T04:40:40.052Z,12.50
2023-05-22T04:41:18.923Z,13.10
2023-05-22T04:41:53.543Z,11.60
2023-05-22T04:42:28.453Z,11.60
2023-05-22T04:43:03.614Z,12.50
2023-05-22T04:43:39.004Z,13.00
2023-05-22T04:44:12.334Z,12.20
2023-05-22T04:44:46.433Z,13.20
2023-05-22T04:45:19.856Z,12.30
2023-05-22T04:45:54.319Z,14.60
2023-05-22T04:46:28.936Z,12.30
2023-05-22T04:47:06.866Z,13.80
2023-05-22T04:47:41.912Z,12.60
2023-05-22T04:48:15.590Z,12.30
2023-05-22T04:48:49.066Z,15.10
2023-05-22T04:49:25.018Z,14.00
2023-05-22T04:50:00.302Z,14.30
2023-05-22T04:50:33.678Z,13.30
2023-05-22T04:51:07.271Z,15.40
2023-05-22T04:51:40.744Z,12.90
2023-05-22T04:52:14.100Z,13.90
2023-05-22T04:52:48.171Z,13.50
2023-05-22T04:53:21.545Z,14.20
2023-05-22T04:53:56.000Z,13.00
2023-05-22T04:54:29.693Z,15.10
2023-05-22T04:55:05.202Z,13.30
2023-05-22T04:55:40.130Z,14.80
2023-05-22T04:56:16.547Z,14.50
2023-05-22T04:57:28.599Z,13.00
2023-05-22T04:58:03.038Z,13.70
2023-05-22T04:58:38.191Z,15.20
2023-05-22T04:59:16.403Z,14.30
2023-05-22T04:59:50.001Z,15.50
2023-05-22T05:00:26.704Z,13.30
2023-05-22T05:01:00.434Z,14.00
2023-05-22T05:01:35.299Z,13.50
2023-05-22T05:02:09.679Z,14.90
2023-05-22T05:02:43.339Z,13.20
2023-05-22T05:03:17.621Z,13.90
2023-05-22T05:03:51.187Z,14.60
2023-05-22T05:04:24.934Z,14.00
2023-05-22T05:04:58.273Z,16.10
2023-05-22T05:05:31.583Z,13.80
2023-05-22T05:06:05.538Z,14.70
2023-05-22T05:06:38.958Z,15.40
2023-05-22T05:07:13.791Z,15.00
2023-05-22T05:07:50.066Z,14.10
2023-05-22T05:08:23.962Z,13.50
2023-05-22T05:08:57.386Z,13.30
2023-05-22T05:09:30.852Z,14.20
2023-05-22T05:10:04.755Z,15.40
2023-05-22T05:10:38.426Z,14.30
2023-05-22T05:11:12.003Z,14.90
2023-05-22T05:11:45.567Z,15.10
2023-05-22T05:12:18.861Z,15.80
2023-05-22T05:12:52.164Z,18.60
2023-05-22T05:13:25.552Z,12.60
2023-05-22T05:13:58.980Z,15.40
2023-05-22T05:14:32.359Z,14.30
2023-05-22T05:15:06.429Z,13.80
2023-05-22T05:15:40.180Z,14.90
2023-05-22T05:16:14.632Z,13.50
2023-05-22T05:16:48.112Z,14.50
2023-05-22T05:17:22.481Z,13.70
2023-05-22T05:17:56.295Z,15.30
2023-05-22T05:18:29.754Z,14.50
2023-05-22T05:19:04.263Z,13.90
2023-05-22T05:19:38.028Z,15.30
2023-05-22T05:20:14.746Z,15.80
2023-05-22T05:20:48.197Z,16.70
2023-05-22T05:21:21.786Z,14.20
2023-05-22T05:21:55.099Z,14.00
2023-05-22T05:22:28.487Z,14.00
2023-05-22T05:23:01.919Z,14.10
2023-05-22T05:23:35.633Z,14.90
2023-05-22T05:24:09.110Z,15.50
2023-05-22T05:24:42.705Z,14.60
2023-05-22T05:25:16.775Z,15.00
2023-05-22T05:25:50.373Z,15.30
2023-05-22T05:26:37.491Z,15.40
2023-05-22T05:27:11.104Z,15.20
2023-05-22T05:27:44.521Z,16.00
2023-05-22T05:28:17.913Z,15.90
2023-05-22T05:28:51.661Z,16.80
2023-05-22T05:29:25.880Z,18.30
2023-05-22T05:30:20.547Z,18.20
2023-05-22T05:31:10.914Z,16.10
2023-05-22T05:32:14.461Z,15.80
2023-05-22T05:33:08.102Z,16.80
2023-05-22T05:33:52.247Z,18.60
2023-05-22T05:34:41.292Z,19.40
2023-05-22T05:35:26.810Z,18.60
2023-05-22T05:36:13.660Z,17.40
2023-05-22T05:36:47.494Z,17.70
2023-05-22T05:37:21.349Z,16.30
2023-05-22T05:37:55.424Z,16.80
2023-05-22T05:38:29.387Z,16.60
2023-05-22T05:39:03.336Z,17.30
2023-05-22T05:39:39.418Z,17.10
2023-05-22T05:40:14.532Z,15.50
2023-05-22T05:40:52.646Z,16.80
2023-05-22T05:41:27.473Z,16.60
2023-05-22T05:42:06.642Z,14.40
2023-05-22T05:42:40.199Z,14.50
2023-05-22T05:43:15.617Z,15.10
2023-05-22T05:43:49.775Z,13.90
2023-05-22T05:44:23.395Z,15.10
2023-05-22T05:44:56.895Z,15.80
2023-05-22T05:45:32.455Z,15.40
2023-05-22T05:46:06.409Z,14.60
2023-05-22T05:46:40.229Z,15.50
2023-05-22T05:47:13.988Z,14.40
2023-05-22T05:47:47.840Z,15.40
2023-05-22T05:48:21.514Z,16.80
2023-05-22T05:48:55.302Z,14.90
2023-05-22T05:49:28.714Z,14.00
2023-05-22T05:50:02.429Z,14.30
2023-05-22T05:50:38.665Z,12.80
2023-05-22T05:51:12.382Z,13.80
2023-05-22T05:51:48.330Z,17.00
2023-05-22T05:52:22.625Z,12.90
2023-05-22T05:52:56.306Z,13.20
2023-05-22T05:53:29.666Z,12.20
2023-05-22T05:54:05.217Z,11.80
2023-05-22T05:54:38.582Z,12.30
2023-05-22T05:55:18.833Z,16.80
2023-05-22T05:55:52.702Z,11.00
2023-05-22T05:56:27.325Z,10.90
2023-05-22T05:57:00.935Z,14.30
2023-05-22T05:57:36.586Z,12.00
2023-05-22T05:58:10.329Z,13.10
2023-05-22T05:58:52.815Z,12.30
2023-05-22T05:59:38.833Z,11.40
2023-05-22T06:00:30.676Z,13.60
2023-05-22T06:01:05.033Z,11.20
2023-05-22T06:01:45.011Z,12.70
2023-05-22T06:02:23.823Z,11.30
2023-05-22T06:02:59.651Z,11.20
2023-05-22T06:03:46.232Z,11.60
2023-05-22T06:04:22.875Z,11.80
2023-05-22T06:04:57.202Z,13.70
2023-05-22T06:05:30.675Z,11.30
2023-05-22T06:06:14.248Z,11.20
2023-05-22T06:07:10.871Z,11.00
2023-05-22T06:07:50.206Z,10.20
2023-05-22T06:08:25.208Z,11.50
2023-05-22T06:08:59.287Z,11.50
2023-05-22T06:09:37.114Z,13.20
2023-05-22T06:10:15.868Z,10.80
2023-05-22T06:11:11.964Z,11.80
2023-05-22T06:11:55.039Z,10.50
2023-05-22T06:12:29.392Z,10.60
2023-05-22T06:13:03.007Z,9.60
2023-05-22T06:13:36.763Z,9.40
2023-05-22T06:14:10.696Z,13.10
2023-05-22T06:14:44.064Z,10.70
2023-05-22T06:15:18.121Z,9.40
2023-05-22T06:15:52.153Z,9.20
2023-05-22T06:16:26.644Z,10.70
2023-05-22T06:17:00.612Z,10.60
2023-05-22T06:17:35.095Z,12.50
2023-05-22T06:18:08.733Z,12.50
2023-05-22T06:18:42.417Z,11.30
2023-05-22T06:19:15.773Z,8.80
2023-05-22T06:19:49.162Z,9.00
2023-05-22T06:20:22.651Z,9.70
2023-05-22T06:20:59.212Z,11.00
2023-05-22T06:21:32.708Z,9.40
2023-05-22T06:22:06.196Z,10.80
2023-05-22T06:22:39.573Z,9.90
2023-05-22T06:23:13.152Z,8.60
2023-05-22T06:23:47.330Z,7.70
2023-05-22T06:24:20.753Z,9.80
2023-05-22T06:24:54.575Z,8.00
2023-05-22T06:25:30.209Z,10.40
2023-05-22T06:26:05.385Z,10.30
2023-05-22T06:26:38.843Z,10.50
2023-05-22T06:27:12.223Z,8.40
2023-05-22T06:27:45.872Z,10.10
2023-05-22T06:28:19.367Z,9.10
2023-05-22T06:28:54.484Z,8.60
2023-05-22T06:29:28.435Z,7.70
2023-05-22T06:30:04.646Z,10.70
2023-05-22T06:30:41.834Z,8.40
2023-05-22T06:31:18.825Z,8.00
2023-05-22T06:31:52.933Z,7.50
2023-05-22T06:32:27.095Z,7.00
2023-05-22T06:33:00.880Z,7.50
2023-05-22T06:33:34.697Z,9.60
2023-05-22T06:34:08.279Z,7.60
2023-05-22T06:34:44.524Z,8.30
2023-05-22T06:35:19.032Z,9.20
2023-05-22T06:35:52.383Z,7.50
2023-05-22T06:36:25.975Z,7.20
2023-05-22T06:36:59.496Z,8.70
2023-05-22T06:37:37.068Z,9.00
2023-05-22T06:38:11.675Z,8.80
2023-05-22T06:38:46.259Z,8.30
2023-05-22T06:39:37.328Z,10.80
2023-05-22T06:40:33.822Z,9.60
2023-05-22T06:41:17.494Z,9.30
2023-05-22T06:41:51.245Z,9.00
2023-05-22T06:42:24.612Z,8.90
2023-05-22T06:43:27.210Z,8.10
2023-05-22T06:44:13.246Z,7.30
2023-05-22T06:44:46.721Z,7.10
2023-05-22T06:45:20.357Z,9.40
2023-05-22T06:46:07.360Z,7.80
2023-05-22T06:46:57.982Z,7.60
2023-05-22T06:47:32.373Z,7.70
2023-05-22T06:48:06.817Z,7.50
2023-05-22T06:48:43.115Z,8.90
2023-05-22T06:49:21.169Z,8.60
2023-05-22T06:49:58.092Z,8.70
2023-05-22T06:50:31.544Z,7.10
2023-05-22T06:51:05.565Z,9.20
2023-05-22T06:51:39.135Z,8.50
2023-05-22T06:52:15.361Z,9.30
2023-05-22T06:52:49.660Z,7.90
2023-05-22T06:53:24.020Z,8.40
2023-05-22T06:53:57.582Z,7.20
2023-05-22T06:54:34.313Z,6.70
2023-05-22T06:55:08.047Z,7.60
2023-05-22T06:55:51.233Z,8.50
2023-05-22T06:56:31.289Z,6.60
2023-05-22T06:57:15.555Z,7.10
2023-05-22T06:57:49.005Z,10.30
2023-05-22T06:58:22.290Z,6.50
2023-05-22T06:58:56.403Z,8.30
2023-05-22T06:59:34.673Z,7.40
2023-05-22T07:00:14.953Z,7.70
2023-05-22T07:01:11.487Z,7.80
2023-05-22T07:01:49.891Z,7.90
2023-05-22T07:02:28.216Z,6.90
2023-05-22T07:03:19.904Z,8.80
2023-05-22T07:04:13.507Z,7.70
2023-05-22T07:05:08.177Z,7.60
2023-05-22T07:05:59.661Z,7.50
2023-05-22T07:06:39.348Z,7.70
2023-05-22T07:07:13.274Z,8.50
2023-05-22T07:07:46.681Z,8.50
2023-05-22T07:08:20.116Z,9.40
2023-05-22T07:08:54.075Z,9.60
2023-05-22T07:09:27.599Z,8.20
2023-05-22T07:10:01.172Z,7.50
2023-05-22T07:10:34.749Z,7.60
2023-05-22T07:11:08.932Z,7.50
2023-05-22T07:11:45.625Z,7.50
2023-05-22T07:12:20.528Z,6.20
2023-05-22T07:12:54.263Z,11.70
2023-05-22T07:13:32.427Z,7.20
2023-05-22T07:14:06.162Z,9.50
2023-05-22T07:14:39.655Z,6.80
2023-05-22T07:15:14.871Z,9.00
2023-05-22T07:15:52.862Z,7.50
2023-05-22T07:16:26.355Z,7.90
2023-05-22T07:16:59.829Z,8.30
2023-05-22T07:17:36.921Z,8.50
2023-05-22T07:18:10.595Z,6.50
2023-05-22T07:18:46.378Z,8.00
2023-05-22T07:19:19.983Z,11.30
2023-05-22T07:19:53.664Z,7.90
2023-05-22T07:20:27.757Z,8.20
2023-05-22T07:21:08.885Z,7.80
2023-05-22T07:21:42.326Z,11.00
2023-05-22T07:22:17.075Z,6.90
2023-05-22T07:22:50.501Z,7.60
2023-05-22T07:23:26.086Z,7.40
2023-05-22T07:24:00.174Z,7.80
2023-05-22T07:24:33.491Z,9.70
2023-05-22T07:25:07.395Z,9.80
2023-05-22T07:25:40.759Z,8.30
2023-05-22T07:26:14.656Z,8.20
2023-05-22T07:26:53.578Z,6.50
2023-05-22T07:27:27.162Z,10.00
2023-05-22T07:28:02.236Z,7.80
2023-05-22T07:28:36.248Z,6.40
2023-05-22T07:29:15.184Z,8.50
2023-05-22T07:29:48.701Z,8.20
2023-05-22T07:30:22.480Z,9.10
2023-05-22T07:30:56.594Z,7.90
2023-05-22T07:31:32.006Z,6.70
2023-05-22T07:32:05.882Z,7.50
2023-05-22T07:32:40.633Z,10.00
2023-05-22T07:33:16.430Z,10.60
2023-05-22T07:33:49.776Z,8.40
2023-05-22T07:34:23.208Z,8.20
2023-05-22T07:34:56.520Z,8.00
2023-05-22T07:35:29.808Z,7.30
2023-05-22T07:36:03.395Z,8.70
2023-05-22T07:36:37.831Z,6.00
2023-05-22T07:37:13.155Z,6.00
2023-05-22T07:37:47.492Z,7.70
2023-05-22T07:38:29.110Z,8.60
2023-05-22T07:39:05.639Z,6.20
2023-05-22T07:39:42.644Z,11.80
2023-05-22T07:40:16.234Z,8.60
2023-05-22T07:40:49.876Z,6.40
2023-05-22T07:41:27.451Z,7.70
2023-05-22T07:42:01.960Z,6.50
2023-05-22T07:42:36.360Z,8.30
2023-05-22T07:43:10.126Z,7.20
2023-05-22T07:43:43.553Z,8.70
2023-05-22T07:44:17.760Z,7.20
2023-05-22T07:44:51.789Z,6.90
2023-05-22T07:45:26.758Z,8.70
2023-05-22T07:46:00.226Z,10.50
2023-05-22T07:46:38.504Z,6.90
2023-05-22T07:47:21.334Z,7.60
2023-05-22T07:47:56.459Z,8.40
2023-05-22T07:48:30.320Z,9.00
2023-05-22T07:49:06.618Z,6.70